createdAt,value
2023-01-13T00:00:12.569Z,993.69
2023-01-13T00:01:12.543Z,993.69
2023-01-13T00:02:13.010Z,993.7
2023-01-13T00:03:13.086Z,993.65
2023-01-13T00:04:13.102Z,993.67
2023-01-13T00:05:13.467Z,993.66
2023-01-13T00:06:12.114Z,993.66
2023-01-13T00:07:12.255Z,993.65
2023-01-13T00:08:12.503Z,993.6
2023-01-13T00:09:12.786Z,993.58
2023-01-13T00:10:12.064Z,993.54
2023-01-13T00:11:12.361Z,993.58
2023-01-13T00:12:12.617Z,993.59
2023-01-13T00:13:12.891Z,993.58
2023-01-13T00:14:12.660Z,993.65
2023-01-13T00:15:12.963Z,993.5
2023-01-13T00:16:13.264Z,993.52
2023-01-13T00:17:13.479Z,993.49
2023-01-13T00:18:13.813Z,993.54
2023-01-13T00:19:12.574Z,993.46
2023-01-13T00:20:12.541Z,993.5
2023-01-13T00:21:12.743Z,993.5
2023-01-13T00:22:12.533Z,993.44
2023-01-13T00:23:12.544Z,993.39
2023-01-13T00:24:12.544Z,993.41
2023-01-13T00:25:12.535Z,993.42
2023-01-13T00:26:12.554Z,993.35
2023-01-13T00:27:12.538Z,993.34
2023-01-13T00:28:12.535Z,993.3
2023-01-13T00:29:12.575Z,993.24
2023-01-13T00:30:12.709Z,993.29
2023-01-13T00:31:12.717Z,993.34
2023-01-13T00:32:12.621Z,993.34
2023-01-13T00:33:12.726Z,993.3
2023-01-13T00:34:12.786Z,993.26
2023-01-13T00:35:12.589Z,993.3
2023-01-13T00:36:12.557Z,993.31
2023-01-13T00:37:12.549Z,993.32
2023-01-13T00:38:12.525Z,993.27
2023-01-13T00:39:12.550Z,993.32
2023-01-13T00:40:12.547Z,993.39
2023-01-13T00:41:12.899Z,993.35
2023-01-13T00:42:12.538Z,993.38
2023-01-13T00:43:12.540Z,993.36
2023-01-13T00:44:12.611Z,993.32
2023-01-13T00:45:12.540Z,993.34
2023-01-13T00:46:12.615Z,993.31
2023-01-13T00:47:12.595Z,993.39
2023-01-13T00:48:12.928Z,993.43
2023-01-13T00:49:12.901Z,993.42
2023-01-13T00:50:12.785Z,993.3
2023-01-13T00:51:12.814Z,993.37
2023-01-13T00:52:12.541Z,993.44
2023-01-13T00:53:12.549Z,993.4
2023-01-13T00:54:12.557Z,993.38
2023-01-13T00:55:12.532Z,993.38
2023-01-13T00:56:12.538Z,993.29
2023-01-13T00:57:12.564Z,993.32
2023-01-13T00:58:12.569Z,993.26
2023-01-13T00:59:12.540Z,993.17
2023-01-13T01:00:12.570Z,993.19
2023-01-13T01:01:12.652Z,993.23
2023-01-13T01:02:12.688Z,993.28
2023-01-13T01:03:12.526Z,993.23
2023-01-13T01:04:12.525Z,993.2
2023-01-13T01:05:12.541Z,993.32
2023-01-13T01:06:12.542Z,993.26
2023-01-13T01:07:12.554Z,993.3
2023-01-13T01:08:12.543Z,993.27
2023-01-13T01:09:12.536Z,993.24
2023-01-13T01:10:12.530Z,993.27
2023-01-13T01:11:12.540Z,993.28
2023-01-13T01:12:12.585Z,993.28
2023-01-13T01:13:12.601Z,993.34
2023-01-13T01:14:12.548Z,993.32
2023-01-13T01:15:12.534Z,993.38
2023-01-13T01:16:12.582Z,993.35
2023-01-13T01:17:12.562Z,993.37
2023-01-13T01:18:12.526Z,993.37
2023-01-13T01:19:12.535Z,993.41
2023-01-13T01:20:12.549Z,993.46
2023-01-13T01:21:12.544Z,993.49
2023-01-13T01:22:12.568Z,993.53
2023-01-13T01:23:12.538Z,993.5
2023-01-13T01:24:12.540Z,993.5
2023-01-13T01:25:12.552Z,993.5
2023-01-13T01:26:12.797Z,993.52
2023-01-13T01:27:12.562Z,993.51
2023-01-13T01:28:12.684Z,993.61
2023-01-13T01:29:12.625Z,993.64
2023-01-13T01:30:12.931Z,993.69
2023-01-13T01:31:12.565Z,993.61
2023-01-13T01:32:12.773Z,993.61
2023-01-13T01:33:12.755Z,993.66
2023-01-13T01:34:12.814Z,993.64
2023-01-13T01:35:12.609Z,993.68
2023-01-13T01:36:12.643Z,993.7
2023-01-13T01:37:12.864Z,993.73
2023-01-13T01:38:12.996Z,993.71
2023-01-13T01:39:12.719Z,993.71
2023-01-13T01:40:12.555Z,993.7
2023-01-13T01:41:12.546Z,993.68
2023-01-13T01:42:12.653Z,993.72
2023-01-13T01:43:12.552Z,993.74
2023-01-13T01:44:12.531Z,993.69
2023-01-13T01:45:12.535Z,993.66
2023-01-13T01:46:12.548Z,993.75
2023-01-13T01:47:12.531Z,993.6
2023-01-13T01:48:12.546Z,993.5
2023-01-13T01:49:12.554Z,993.37
2023-01-13T01:50:12.556Z,993.45
2023-01-13T01:51:12.644Z,993.56
2023-01-13T01:52:12.534Z,993.56
2023-01-13T01:53:12.555Z,993.57
2023-01-13T01:54:12.547Z,993.4
2023-01-13T01:55:12.554Z,993.48
2023-01-13T01:56:12.538Z,993.46
2023-01-13T01:57:12.544Z,993.47
2023-01-13T01:58:12.566Z,993.53
2023-01-13T01:59:12.564Z,993.48
2023-01-13T02:00:12.538Z,993.49
2023-01-13T02:01:12.699Z,993.42
2023-01-13T02:02:12.692Z,993.48
2023-01-13T02:03:12.548Z,993.5
2023-01-13T02:04:12.547Z,993.5
2023-01-13T02:05:12.546Z,993.49
2023-01-13T02:06:12.548Z,993.44
2023-01-13T02:07:12.540Z,993.41
2023-01-13T02:08:12.585Z,993.42
2023-01-13T02:09:12.554Z,993.22
2023-01-13T02:10:12.534Z,993.29
2023-01-13T02:11:12.536Z,993.28
2023-01-13T02:12:12.617Z,993.34
2023-01-13T02:13:12.548Z,993.58
2023-01-13T02:14:12.538Z,993.45
2023-01-13T02:15:12.541Z,993.54
2023-01-13T02:16:12.596Z,993.55
2023-01-13T02:17:12.533Z,993.6
2023-01-13T02:18:12.558Z,993.62
2023-01-13T02:19:12.540Z,993.68
2023-01-13T02:20:12.617Z,993.72
2023-01-13T02:21:12.657Z,993.8
2023-01-13T02:22:12.538Z,993.75
2023-01-13T02:23:12.535Z,993.78
2023-01-13T02:24:12.540Z,993.73
2023-01-13T02:25:12.541Z,993.63
2023-01-13T02:26:12.543Z,993.59
2023-01-13T02:27:12.528Z,993.56
2023-01-13T02:28:12.555Z,993.58
2023-01-13T02:29:12.549Z,993.66
2023-01-13T02:30:12.531Z,993.68
2023-01-13T02:31:12.601Z,993.76
2023-01-13T02:32:12.536Z,993.66
2023-01-13T02:33:12.549Z,993.56
2023-01-13T02:34:12.634Z,993.4
2023-01-13T02:35:12.552Z,993.42
2023-01-13T02:36:12.640Z,993.46
2023-01-13T02:37:12.850Z,993.6
2023-01-13T02:38:12.534Z,993.56
2023-01-13T02:39:12.525Z,993.59
2023-01-13T02:40:12.527Z,993.53
2023-01-13T02:41:12.531Z,993.67
2023-01-13T02:42:12.538Z,993.73
2023-01-13T02:43:12.527Z,993.66
2023-01-13T02:44:12.743Z,993.65
2023-01-13T02:45:12.544Z,993.69
2023-01-13T02:46:12.535Z,993.71
2023-01-13T02:47:12.574Z,993.61
2023-01-13T02:48:12.526Z,993.78
2023-01-13T02:49:12.618Z,993.72
2023-01-13T02:50:12.632Z,993.64
2023-01-13T02:51:12.686Z,993.6
2023-01-13T02:52:12.977Z,993.63
2023-01-13T02:53:12.904Z,993.6
2023-01-13T02:54:12.947Z,993.6
2023-01-13T02:55:12.919Z,993.66
2023-01-13T02:56:12.985Z,993.71
2023-01-13T02:57:13.350Z,993.68
2023-01-13T02:58:12.640Z,993.71
2023-01-13T02:59:12.912Z,993.67
2023-01-13T03:00:12.583Z,993.7
2023-01-13T03:01:12.954Z,993.69
2023-01-13T03:02:12.882Z,993.68
2023-01-13T03:03:12.512Z,993.74
2023-01-13T03:04:12.843Z,993.75
2023-01-13T03:05:12.539Z,993.74
2023-01-13T03:06:12.820Z,993.69
2023-01-13T03:07:12.593Z,993.68
2023-01-13T03:08:12.734Z,993.66
2023-01-13T03:09:12.605Z,993.69
2023-01-13T03:10:12.920Z,993.69
2023-01-13T03:11:12.720Z,993.7
2023-01-13T03:12:12.971Z,993.69
2023-01-13T03:13:12.796Z,993.66
2023-01-13T03:14:12.591Z,993.69
2023-01-13T03:15:12.808Z,993.64
2023-01-13T03:16:12.625Z,993.74
2023-01-13T03:17:12.900Z,993.66
2023-01-13T03:18:13.283Z,993.68
2023-01-13T03:19:12.511Z,993.6
2023-01-13T03:20:12.563Z,993.6
2023-01-13T03:21:12.843Z,993.59
2023-01-13T03:22:12.602Z,993.64
2023-01-13T03:23:12.498Z,993.63
2023-01-13T03:24:12.606Z,993.62
2023-01-13T03:25:12.511Z,993.56
2023-01-13T03:26:12.525Z,993.56
2023-01-13T03:27:12.707Z,993.53
2023-01-13T03:28:12.663Z,993.54
2023-01-13T03:29:12.800Z,993.55
2023-01-13T03:30:12.680Z,993.57
2023-01-13T03:31:12.802Z,993.55
2023-01-13T03:32:12.533Z,993.52
2023-01-13T03:33:12.554Z,993.56
2023-01-13T03:34:12.519Z,993.55
2023-01-13T03:35:12.528Z,993.6
2023-01-13T03:36:12.511Z,993.52
2023-01-13T03:37:12.517Z,993.55
2023-01-13T03:38:12.514Z,993.61
2023-01-13T03:39:12.510Z,993.66
2023-01-13T03:40:13.336Z,993.61
2023-01-13T03:41:12.533Z,993.6
2023-01-13T03:42:12.490Z,993.58
2023-01-13T03:43:12.570Z,993.64
2023-01-13T03:44:12.829Z,993.65
2023-01-13T03:45:12.013Z,993.59
2023-01-13T03:46:12.432Z,993.53
2023-01-13T03:47:12.739Z,993.64
2023-01-13T03:48:12.836Z,993.57
2023-01-13T03:49:12.617Z,993.57
2023-01-13T03:50:13.065Z,993.54
2023-01-13T03:51:13.520Z,993.5
2023-01-13T03:52:12.522Z,993.55
2023-01-13T03:53:12.543Z,993.57
2023-01-13T03:54:12.518Z,993.54
2023-01-13T03:55:12.508Z,993.59
2023-01-13T03:56:12.519Z,993.58
2023-01-13T03:57:12.506Z,993.58
2023-01-13T03:58:12.651Z,993.6
2023-01-13T03:59:12.601Z,993.62
2023-01-13T04:00:12.530Z,993.61
2023-01-13T04:01:12.579Z,993.6
2023-01-13T04:02:12.655Z,993.61
2023-01-13T04:03:12.551Z,993.64
2023-01-13T04:04:12.512Z,993.68
2023-01-13T04:05:12.537Z,993.55
2023-01-13T04:06:12.518Z,993.62
2023-01-13T04:07:12.523Z,993.59
2023-01-13T04:08:12.515Z,993.6
2023-01-13T04:09:12.519Z,993.62
2023-01-13T04:10:12.585Z,993.68
2023-01-13T04:11:12.523Z,993.7
2023-01-13T04:12:12.534Z,993.68
2023-01-13T04:13:12.509Z,993.67
2023-01-13T04:14:12.513Z,993.72
2023-01-13T04:15:12.564Z,993.77
2023-01-13T04:16:12.620Z,993.71
2023-01-13T04:17:12.508Z,993.82
2023-01-13T04:18:12.521Z,993.77
2023-01-13T04:19:12.518Z,993.71
2023-01-13T04:20:12.584Z,993.81
2023-01-13T04:21:12.510Z,993.77
2023-01-13T04:22:12.519Z,993.77
2023-01-13T04:23:12.513Z,993.77
2023-01-13T04:24:12.507Z,993.75
2023-01-13T04:25:12.644Z,993.78
2023-01-13T04:26:12.513Z,993.76
2023-01-13T04:27:12.515Z,993.79
2023-01-13T04:28:12.619Z,993.7
2023-01-13T04:29:15.489Z,993.71
2023-01-13T04:30:12.528Z,993.66
2023-01-13T04:31:12.541Z,993.69
2023-01-13T04:32:12.541Z,993.73
2023-01-13T04:33:12.512Z,993.75
2023-01-13T04:34:12.515Z,993.81
2023-01-13T04:35:12.545Z,993.76
2023-01-13T04:36:12.515Z,993.75
2023-01-13T04:37:12.514Z,993.75
2023-01-13T04:38:12.523Z,993.79
2023-01-13T04:39:12.507Z,993.73
2023-01-13T04:40:12.519Z,993.68
2023-01-13T04:41:12.576Z,993.69
2023-01-13T04:42:12.510Z,993.63
2023-01-13T04:43:12.533Z,993.62
2023-01-13T04:44:12.523Z,993.56
2023-01-13T04:45:12.630Z,993.55
2023-01-13T04:46:12.552Z,993.59
2023-01-13T04:47:12.519Z,993.56
2023-01-13T04:48:12.556Z,993.65
2023-01-13T04:49:12.517Z,993.65
2023-01-13T04:50:12.515Z,993.62
2023-01-13T04:51:12.513Z,993.6
2023-01-13T04:52:12.508Z,993.55
2023-01-13T04:53:12.534Z,993.53
2023-01-13T04:54:12.524Z,993.56
2023-01-13T04:55:12.594Z,993.46
2023-01-13T04:56:12.710Z,993.53
2023-01-13T04:57:12.513Z,993.52
2023-01-13T04:58:12.519Z,993.48
2023-01-13T04:59:12.527Z,993.52
2023-01-13T05:00:13.926Z,993.55
2023-01-13T05:01:14.219Z,993.48
2023-01-13T05:02:12.558Z,993.55
2023-01-13T05:03:12.795Z,993.38
2023-01-13T05:04:13.929Z,993.46
2023-01-13T05:05:14.217Z,993.45
2023-01-13T05:06:13.406Z,993.36
2023-01-13T05:07:13.684Z,993.37
2023-01-13T05:08:13.963Z,993.3
2023-01-13T05:09:13.678Z,993.3
2023-01-13T05:10:12.790Z,993.27
2023-01-13T05:11:12.760Z,993.44
2023-01-13T05:12:12.822Z,993.41
2023-01-13T05:13:12.993Z,993.43
2023-01-13T05:14:12.587Z,993.47
2023-01-13T05:15:12.786Z,993.52
2023-01-13T05:16:16.242Z,993.52
2023-01-13T05:17:12.518Z,993.49
2023-01-13T05:18:12.533Z,993.49
2023-01-13T05:19:12.525Z,993.46
2023-01-13T05:20:12.506Z,993.48
2023-01-13T05:21:12.625Z,993.49
2023-01-13T05:22:12.518Z,993.43
2023-01-13T05:23:12.541Z,993.5
2023-01-13T05:24:12.507Z,993.43
2023-01-13T05:25:12.513Z,993.51
2023-01-13T05:26:12.521Z,993.46
2023-01-13T05:27:12.517Z,993.56
2023-01-13T05:28:12.534Z,993.55
2023-01-13T05:29:12.522Z,993.54
2023-01-13T05:30:12.518Z,993.55
2023-01-13T05:31:12.544Z,993.55
2023-01-13T05:32:12.522Z,993.5
2023-01-13T05:33:12.560Z,993.5
2023-01-13T05:34:12.523Z,993.44
2023-01-13T05:35:12.520Z,993.53
2023-01-13T05:36:12.520Z,993.61
2023-01-13T05:37:12.515Z,993.54
2023-01-13T05:38:12.565Z,993.57
2023-01-13T05:39:12.512Z,993.55
2023-01-13T05:40:12.529Z,993.62
2023-01-13T05:41:12.523Z,993.52
2023-01-13T05:42:12.519Z,993.54
2023-01-13T05:43:12.526Z,993.61
2023-01-13T05:44:12.511Z,993.62
2023-01-13T05:45:12.517Z,993.64
2023-01-13T05:46:12.625Z,993.62
2023-01-13T05:47:12.519Z,993.74
2023-01-13T05:48:12.594Z,993.67
2023-01-13T05:49:12.512Z,993.56
2023-01-13T05:50:12.580Z,993.62
2023-01-13T05:51:12.514Z,993.65
2023-01-13T05:52:12.522Z,993.64
2023-01-13T05:53:12.519Z,993.72
2023-01-13T05:54:12.502Z,993.56
2023-01-13T05:55:12.524Z,993.63
2023-01-13T05:56:12.655Z,993.6
2023-01-13T05:57:12.503Z,993.64
2023-01-13T05:58:12.512Z,993.61
2023-01-13T05:59:12.510Z,993.64
2023-01-13T06:00:12.528Z,993.53
2023-01-13T06:01:12.579Z,993.66
2023-01-13T06:02:12.523Z,993.59
2023-01-13T06:03:12.606Z,993.57
2023-01-13T06:04:12.605Z,993.65
2023-01-13T06:05:12.517Z,993.63
2023-01-13T06:06:12.516Z,993.65
2023-01-13T06:07:12.566Z,993.63
2023-01-13T06:08:12.517Z,993.56
2023-01-13T06:09:12.526Z,993.54
2023-01-13T06:10:12.509Z,993.54
2023-01-13T06:11:12.520Z,993.56
2023-01-13T06:12:12.506Z,993.58
2023-01-13T06:13:12.516Z,993.69
2023-01-13T06:14:12.516Z,993.67
2023-01-13T06:15:12.512Z,993.68
2023-01-13T06:16:12.707Z,993.6
2023-01-13T06:17:12.589Z,993.55
2023-01-13T06:18:12.642Z,993.63
2023-01-13T06:19:12.515Z,993.56
2023-01-13T06:20:12.522Z,993.63
2023-01-13T06:21:12.540Z,993.66
2023-01-13T06:22:12.731Z,993.68
2023-01-13T06:23:12.523Z,993.67
2023-01-13T06:24:12.507Z,993.67
2023-01-13T06:25:12.550Z,993.67
2023-01-13T06:26:12.527Z,993.73
2023-01-13T06:27:12.514Z,993.58
2023-01-13T06:28:12.524Z,993.65
2023-01-13T06:29:12.671Z,993.57
2023-01-13T06:30:12.524Z,993.66
2023-01-13T06:31:12.673Z,993.66
2023-01-13T06:32:12.523Z,993.66
2023-01-13T06:33:12.527Z,993.68
2023-01-13T06:34:12.510Z,993.64
2023-01-13T06:35:12.516Z,993.67
2023-01-13T06:36:12.693Z,993.52
2023-01-13T06:37:12.550Z,993.63
2023-01-13T06:38:12.511Z,993.6
2023-01-13T06:39:12.516Z,993.57
2023-01-13T06:40:12.514Z,993.68
2023-01-13T06:41:12.720Z,993.72
2023-01-13T06:42:12.536Z,993.79
2023-01-13T06:43:14.409Z,993.78
2023-01-13T06:44:12.725Z,993.82
2023-01-13T06:45:12.819Z,993.82
2023-01-13T06:46:12.703Z,993.89
2023-01-13T06:47:13.128Z,993.83
2023-01-13T06:48:12.904Z,993.9
2023-01-13T06:49:12.661Z,993.77
2023-01-13T06:50:12.797Z,993.87
2023-01-13T06:51:12.660Z,993.87
2023-01-13T06:52:12.818Z,993.78
2023-01-13T06:53:12.642Z,993.83
2023-01-13T06:54:12.961Z,993.76
2023-01-13T06:55:12.762Z,993.87
2023-01-13T06:56:12.516Z,993.87
2023-01-13T06:57:12.758Z,993.91
2023-01-13T06:58:12.512Z,993.87
2023-01-13T06:59:12.773Z,993.86
2023-01-13T07:00:12.516Z,993.91
2023-01-13T07:01:12.645Z,993.93
2023-01-13T07:02:12.656Z,993.89
2023-01-13T07:03:12.571Z,993.85
2023-01-13T07:04:12.520Z,993.86
2023-01-13T07:05:12.516Z,993.93
2023-01-13T07:06:12.515Z,993.82
2023-01-13T07:07:12.510Z,993.93
2023-01-13T07:08:12.506Z,993.84
2023-01-13T07:09:12.528Z,993.87
2023-01-13T07:10:12.509Z,993.87
2023-01-13T07:11:12.518Z,993.96
2023-01-13T07:12:12.512Z,993.85
2023-01-13T07:13:12.510Z,993.95
2023-01-13T07:14:13.533Z,993.99
2023-01-13T07:15:13.794Z,993.89
2023-01-13T07:16:11.981Z,993.89
2023-01-13T07:17:12.215Z,993.87
2023-01-13T07:18:12.491Z,993.9
2023-01-13T07:19:12.778Z,993.85
2023-01-13T07:20:12.041Z,993.83
2023-01-13T07:21:12.326Z,993.88
2023-01-13T07:22:12.604Z,993.81
2023-01-13T07:23:12.874Z,993.94
2023-01-13T07:24:12.162Z,993.75
2023-01-13T07:25:12.446Z,993.86
2023-01-13T07:26:12.733Z,993.9
2023-01-13T07:27:13.001Z,993.86
2023-01-13T07:28:12.589Z,993.91
2023-01-13T07:29:12.632Z,994
2023-01-13T07:30:12.598Z,994.06
2023-01-13T07:31:12.908Z,993.91
2023-01-13T07:32:12.688Z,994.04
2023-01-13T07:33:12.757Z,993.99
2023-01-13T07:34:12.714Z,993.94
2023-01-13T07:35:12.983Z,993.98
2023-01-13T07:36:12.576Z,993.94
2023-01-13T07:37:12.845Z,993.99
2023-01-13T07:38:13.096Z,993.94
2023-01-13T07:39:12.657Z,993.96
2023-01-13T07:40:12.861Z,994.05
2023-01-13T07:41:12.791Z,994.05
2023-01-13T07:42:12.667Z,994.02
2023-01-13T07:43:12.533Z,994.03
2023-01-13T07:44:13.162Z,994.03
2023-01-13T07:45:15.790Z,994.03
2023-01-13T07:46:12.594Z,994.05
2023-01-13T07:47:12.526Z,994.14
2023-01-13T07:48:12.515Z,994.1
2023-01-13T07:49:12.522Z,994.04
2023-01-13T07:50:12.515Z,994.08
2023-01-13T07:51:12.513Z,994.12
2023-01-13T07:52:12.508Z,994.19
2023-01-13T07:53:12.533Z,994.15
2023-01-13T07:54:12.518Z,994.05
2023-01-13T07:55:12.577Z,994.03
2023-01-13T07:56:12.518Z,994.13
2023-01-13T07:57:12.531Z,994.1
2023-01-13T07:58:12.517Z,994.07
2023-01-13T07:59:12.518Z,994.12
2023-01-13T08:00:15.567Z,994.14
2023-01-13T08:01:12.647Z,994.07
2023-01-13T08:02:12.756Z,994.14
2023-01-13T08:03:12.523Z,994.12
2023-01-13T08:04:12.524Z,994.11
2023-01-13T08:05:12.511Z,994.1
2023-01-13T08:06:12.519Z,994.15
2023-01-13T08:07:12.561Z,994.13
2023-01-13T08:08:12.566Z,994.17
2023-01-13T08:09:12.522Z,994.13
2023-01-13T08:10:12.599Z,994.15
2023-01-13T08:11:12.533Z,994.1
2023-01-13T08:12:12.507Z,994.16
2023-01-13T08:13:12.516Z,994.19
2023-01-13T08:14:12.525Z,993.97
2023-01-13T08:15:12.506Z,994.12
2023-01-13T08:16:12.596Z,994.14
2023-01-13T08:17:12.517Z,994.2
2023-01-13T08:18:12.519Z,994.19
2023-01-13T08:19:12.522Z,994.25
2023-01-13T08:20:12.506Z,994.09
2023-01-13T08:21:12.587Z,994.23
2023-01-13T08:22:12.523Z,994.24
2023-01-13T08:23:12.513Z,994.19
2023-01-13T08:24:12.515Z,994.2
2023-01-13T08:25:12.544Z,994.17
2023-01-13T08:26:12.521Z,994.19
2023-01-13T08:27:12.510Z,994.14
2023-01-13T08:28:12.505Z,994.2
2023-01-13T08:29:15.528Z,994.15
2023-01-13T08:30:12.526Z,994.2
2023-01-13T08:31:12.597Z,994.25
2023-01-13T08:32:12.510Z,994.19
2023-01-13T08:33:12.533Z,994.2
2023-01-13T08:34:12.523Z,994.19
2023-01-13T08:35:12.638Z,994.19
2023-01-13T08:36:12.763Z,994.31
2023-01-13T08:37:12.510Z,994.41
2023-01-13T08:38:12.654Z,994.28
2023-01-13T08:39:12.633Z,994.42
2023-01-13T08:40:12.854Z,994.33
2023-01-13T08:41:12.526Z,994.46
2023-01-13T08:42:12.742Z,994.49
2023-01-13T08:43:12.718Z,994.52
2023-01-13T08:44:12.513Z,994.42
2023-01-13T08:45:12.578Z,994.51
2023-01-13T08:46:12.558Z,994.53
2023-01-13T08:47:12.850Z,994.57
2023-01-13T08:48:13.024Z,994.61
2023-01-13T08:49:12.695Z,994.52
2023-01-13T08:50:12.556Z,994.49
2023-01-13T08:51:12.512Z,994.42
2023-01-13T08:52:12.531Z,994.44
2023-01-13T08:53:12.581Z,994.48
2023-01-13T08:54:12.508Z,994.54
2023-01-13T08:55:12.515Z,994.5
2023-01-13T08:56:12.523Z,994.51
2023-01-13T08:57:12.602Z,994.49
2023-01-13T08:58:18.824Z,994.51
2023-01-13T08:59:12.511Z,994.52
2023-01-13T09:00:12.510Z,994.56
2023-01-13T09:01:12.619Z,994.49
2023-01-13T09:02:12.666Z,994.65
2023-01-13T09:03:12.516Z,994.62
2023-01-13T09:04:12.560Z,994.61
2023-01-13T09:05:12.522Z,994.67
2023-01-13T09:06:12.522Z,994.57
2023-01-13T09:07:12.545Z,994.67
2023-01-13T09:08:12.685Z,994.63
2023-01-13T09:09:12.506Z,994.72
2023-01-13T09:10:12.518Z,994.73
2023-01-13T09:11:12.512Z,994.67
2023-01-13T09:12:12.507Z,994.74
2023-01-13T09:13:12.535Z,994.59
2023-01-13T09:14:12.513Z,994.83
2023-01-13T09:15:12.517Z,994.72
2023-01-13T09:16:12.569Z,994.75
2023-01-13T09:17:12.527Z,994.79
2023-01-13T09:18:12.511Z,994.81
2023-01-13T09:19:12.522Z,994.85
2023-01-13T09:20:12.521Z,994.77
2023-01-13T09:21:12.614Z,994.86
2023-01-13T09:22:12.507Z,994.87
2023-01-13T09:23:13.515Z,994.87
2023-01-13T09:24:12.537Z,994.81
2023-01-13T09:25:12.517Z,994.81
2023-01-13T09:26:12.521Z,994.88
2023-01-13T09:27:12.519Z,994.78
2023-01-13T09:28:12.531Z,994.85
2023-01-13T09:29:12.511Z,994.91
2023-01-13T09:30:12.524Z,994.78
2023-01-13T09:31:12.542Z,994.82
2023-01-13T09:32:12.578Z,994.92
2023-01-13T09:33:12.518Z,994.91
2023-01-13T09:34:12.513Z,994.94
2023-01-13T09:35:12.600Z,994.9
2023-01-13T09:36:12.513Z,994.94
2023-01-13T09:37:12.526Z,994.92
2023-01-13T09:38:12.536Z,994.92
2023-01-13T09:39:12.515Z,994.91
2023-01-13T09:40:12.516Z,994.93
2023-01-13T09:41:12.523Z,994.98
2023-01-13T09:42:12.522Z,995
2023-01-13T09:43:12.511Z,995.05
2023-01-13T09:44:12.512Z,995.08
2023-01-13T09:45:12.538Z,995.06
2023-01-13T09:46:12.538Z,995.07
2023-01-13T09:47:14.515Z,994.99
2023-01-13T09:48:12.528Z,995.1
2023-01-13T09:49:12.530Z,994.9
2023-01-13T09:50:12.513Z,995
2023-01-13T09:51:12.660Z,995.11
2023-01-13T09:52:12.666Z,995.16
2023-01-13T09:53:12.936Z,995.22
2023-01-13T09:54:12.694Z,995.15
2023-01-13T09:55:12.515Z,995.15
2023-01-13T09:56:12.763Z,995.08
2023-01-13T09:57:12.544Z,995.11
2023-01-13T09:58:12.767Z,995.13
2023-01-13T09:59:12.522Z,995.15
2023-01-13T10:00:12.509Z,995.14
2023-01-13T10:01:12.691Z,995.23
2023-01-13T10:02:12.521Z,995.02
2023-01-13T10:03:12.560Z,995.27
2023-01-13T10:04:12.515Z,995.15
2023-01-13T10:05:12.728Z,995.22
2023-01-13T10:06:12.513Z,995.1
2023-01-13T10:07:12.517Z,995.19
2023-01-13T10:08:12.510Z,995.12
2023-01-13T10:09:12.519Z,995.17
2023-01-13T10:10:12.499Z,995.18
2023-01-13T10:11:12.509Z,995.31
2023-01-13T10:12:12.504Z,995.15
2023-01-13T10:13:12.529Z,995.16
2023-01-13T10:14:12.517Z,995.09
2023-01-13T10:15:12.684Z,995.18
2023-01-13T10:16:12.605Z,995.22
2023-01-13T10:17:12.521Z,995.19
2023-01-13T10:18:12.524Z,995.19
2023-01-13T10:19:12.972Z,995.19
2023-01-13T10:20:12.704Z,995.2
2023-01-13T10:21:12.522Z,995.17
2023-01-13T10:22:12.663Z,995.27
2023-01-13T10:23:12.939Z,995.08
2023-01-13T10:24:12.590Z,995.14
2023-01-13T10:25:12.506Z,995.18
2023-01-13T10:26:12.802Z,995.25
2023-01-13T10:27:12.514Z,995.2
2023-01-13T10:28:12.524Z,995.19
2023-01-13T10:29:12.512Z,995.13
2023-01-13T10:30:12.706Z,995.22
2023-01-13T10:31:12.518Z,995.08
2023-01-13T10:32:12.511Z,995.12
2023-01-13T10:33:12.516Z,995.06
2023-01-13T10:34:12.911Z,995.08
2023-01-13T10:35:12.511Z,995.09
2023-01-13T10:36:12.520Z,995.12
2023-01-13T10:37:12.531Z,995.13
2023-01-13T10:38:12.514Z,995.07
2023-01-13T10:39:12.510Z,995.15
2023-01-13T10:40:12.525Z,995.14
2023-01-13T10:41:12.517Z,995.15
2023-01-13T10:42:12.536Z,995.26
2023-01-13T10:43:12.515Z,995.19
2023-01-13T10:44:12.851Z,995.15
2023-01-13T10:45:12.515Z,995.23
2023-01-13T10:46:12.539Z,995.23
2023-01-13T10:47:13.560Z,995.27
2023-01-13T10:48:13.847Z,995.2
2023-01-13T10:49:11.987Z,995.32
2023-01-13T10:50:12.274Z,995.2
2023-01-13T10:51:12.556Z,995.26
2023-01-13T10:52:12.840Z,995.23
2023-01-13T10:53:12.105Z,995.05
2023-01-13T10:54:12.384Z,995.06
2023-01-13T10:55:12.679Z,995.16
2023-01-13T10:56:11.939Z,995.1
2023-01-13T10:57:12.225Z,995.23
2023-01-13T10:58:12.495Z,995.25
2023-01-13T10:59:12.808Z,995.15
2023-01-13T11:00:13.007Z,995.09
2023-01-13T11:01:12.699Z,995.12
2023-01-13T11:02:25.589Z,995.19
2023-01-13T11:03:12.520Z,995.05
2023-01-13T11:04:12.797Z,995.18
2023-01-13T11:05:12.864Z,995.25
2023-01-13T11:06:12.902Z,995.26
2023-01-13T11:07:12.736Z,995.16
2023-01-13T11:08:12.675Z,995.19
2023-01-13T11:09:13.101Z,995.19
2023-01-13T11:10:12.872Z,995.23
2023-01-13T11:11:12.749Z,995.22
2023-01-13T11:12:12.565Z,995.27
2023-01-13T11:13:12.767Z,995.32
2023-01-13T11:14:12.574Z,995.23
2023-01-13T11:15:12.844Z,995.28
2023-01-13T11:16:12.790Z,995.35
2023-01-13T11:17:12.837Z,995.24
2023-01-13T11:18:12.579Z,995.26
2023-01-13T11:19:12.837Z,995.24
2023-01-13T11:20:12.577Z,995.28
2023-01-13T11:21:12.562Z,995.34
2023-01-13T11:22:12.566Z,995.21
2023-01-13T11:23:12.566Z,995.26
2023-01-13T11:24:12.599Z,995.28
2023-01-13T11:25:12.575Z,995.2
2023-01-13T11:26:12.570Z,995.27
2023-01-13T11:27:12.581Z,995.23
2023-01-13T11:28:12.574Z,995.14
2023-01-13T11:29:12.567Z,995.1
2023-01-13T11:30:12.571Z,995.14
2023-01-13T11:31:12.571Z,995.25
2023-01-13T11:32:12.571Z,995.2
2023-01-13T11:33:12.561Z,995.18
2023-01-13T11:34:12.561Z,995.21
2023-01-13T11:35:12.567Z,995.2
2023-01-13T11:36:12.558Z,995.19
2023-01-13T11:37:12.559Z,995.18
2023-01-13T11:38:12.561Z,995.2
2023-01-13T11:39:12.584Z,995.18
2023-01-13T11:40:12.565Z,995.17
2023-01-13T11:41:12.734Z,995.2
2023-01-13T11:42:12.606Z,995.21
2023-01-13T11:43:12.579Z,995.16
2023-01-13T11:44:12.581Z,995.14
2023-01-13T11:45:12.564Z,995.25
2023-01-13T11:46:12.572Z,995.26
2023-01-13T11:47:12.580Z,995.12
2023-01-13T11:48:12.560Z,995.21
2023-01-13T11:49:12.557Z,995.04
2023-01-13T11:50:12.562Z,995.09
2023-01-13T11:51:12.567Z,995.08
2023-01-13T11:52:12.577Z,995.13
2023-01-13T11:53:12.560Z,995.14
2023-01-13T11:54:12.567Z,995.16
2023-01-13T11:55:12.572Z,995.16
2023-01-13T11:56:12.669Z,995.14
2023-01-13T11:57:12.560Z,995.24
2023-01-13T11:58:12.557Z,995.12
2023-01-13T11:59:12.562Z,995.04
2023-01-13T12:00:12.562Z,995.2
2023-01-13T12:01:12.594Z,995.09
2023-01-13T12:02:12.635Z,995.09
2023-01-13T12:03:12.656Z,995
2023-01-13T12:04:12.578Z,995.08
2023-01-13T12:05:12.559Z,995.05
2023-01-13T12:06:12.551Z,995.04
2023-01-13T12:07:12.580Z,995.06
2023-01-13T12:08:12.570Z,995.02
2023-01-13T12:09:12.588Z,994.98
2023-01-13T12:10:15.619Z,995.08
2023-01-13T12:11:12.782Z,995.08
2023-01-13T12:12:12.557Z,995.04
2023-01-13T12:13:12.648Z,995.05
2023-01-13T12:14:12.598Z,995.09
2023-01-13T12:15:12.828Z,995.09
2023-01-13T12:16:12.594Z,995.25
2023-01-13T12:17:12.704Z,995.2
2023-01-13T12:18:12.775Z,995.39
2023-01-13T12:19:12.836Z,995.22
2023-01-13T12:20:12.636Z,995.38
2023-01-13T12:21:12.571Z,995.41
2023-01-13T12:22:12.889Z,995.38
2023-01-13T12:23:13.072Z,995.44
2023-01-13T12:24:12.662Z,995.6
2023-01-13T12:25:12.569Z,995.59
2023-01-13T12:26:12.560Z,995.44
2023-01-13T12:27:12.570Z,995.47
2023-01-13T12:28:12.592Z,995.48
2023-01-13T12:29:12.562Z,995.47
2023-01-13T12:30:12.573Z,995.56
2023-01-13T12:31:12.695Z,995.58